Archival Weather

Murmansk

Murmansk, Russia (ULMM)

Report from: Tuesday, May 21, 2024 4:00 AM MSK
Current time: Monday, June 17, 2024 9:46 AM MSK

Current weather – Weather history – Daily summaries
Weather forecast

Temperature-1.0°C (30.2°F)
Wind chill-4.7°C (23.5°F)
Dew point-8.0°C (17.6°F)
Winds 5.8 kts (3 m/s, 6.7 mph) West (270°)
Clouds Sky clear
Altimeter30.03 in.Hg (1017 mB)
Precip. events QF 12:35 PM
Relative humidity59 %
Density altitude-2,032 ft. (-619 m)
Remarks Ceiling and visibility OK
No significant changes expected in the next two hours
Flight conditions Visual Meteorological Conditions
Raw dataULMM 210100Z 27003MPS CAVOK M01/M08 Q1017 R31/190060 NOSIG RMK QFE755
An error has occurred. This application may no longer respond until reloaded. Reload 🗙